1922 NOT_NAMED (1922266N15130)


IBTrACS version v04r00. Visit IBTrACS website for data access.
Please direct all questions to the IBTrACS Q and A forum

Storm track - Intensity - Wind Radii - Intensity Data - Source Data - All data

Summary Information

Storm ID 1922266N15130
Start Sep 22 22Z
Landfall Sep 24 06Z
End Sep 26 22Z
ATCF IDs
Track status Best track data.

Storm track plot

Map of storm track

Intensity plots

No Intensity information for this storm


Radial wind information

No radial wind information for this storm


Position and Intensity Table

BASIN ISO_TIME_________ NATURE LAT LON
degrees north degrees east
WP 1922-09-22 22:00:00 NR 15.40 130.30
WP 1922-09-23 00:00:00 NR 15.23 129.95
WP 03:00:00 NR 14.99 129.42
WP 06:00:00 NR 14.76 128.92
WP 09:00:00 NR 14.56 128.45
WP 10:00:00 NR 14.50 128.30
WP 12:00:00 NR 14.39 128.02
WP 15:00:00 NR 14.25 127.59
WP 18:00:00 NR 14.11 127.12
WP 21:00:00 NR 13.96 126.53
WP 22:00:00 NR 13.90 126.30
WP 1922-09-24 00:00:00 NR 13.76 125.77
WP 03:00:00 NR 13.53 124.85
WP 06:00:00 NR 13.27 123.83
WP 09:00:00 NR 12.99 122.76
WP 10:00:00 NR 12.90 122.40
WP 12:00:00 NR 12.67 121.65
WP 15:00:00 NR 12.31 120.51
WP 18:00:00 NR 11.99 119.42
WP 21:00:00 NR 11.75 118.47
WP 22:00:00 NR 11.70 118.20
WP 1922-09-25 00:00:00 NR 11.67 117.77
WP 03:00:00 NR 11.72 117.29
WP 06:00:00 NR 11.86 116.92
WP 09:00:00 NR 12.04 116.61
WP 10:00:00 NR 12.10 116.50
WP 12:00:00 NR 12.18 116.22
WP 15:00:00 NR 12.31 115.81
WP 18:00:00 NR 12.47 115.41
WP 21:00:00 NR 12.64 115.03
WP 22:00:00 NR 12.70 114.90
WP 1922-09-26 00:00:00 NR 12.83 114.65
WP 03:00:00 NR 13.04 114.29
WP 06:00:00 NR 13.27 113.95
WP 09:00:00 NR 13.51 113.61
WP 10:00:00 NR 13.60 113.50
WP 12:00:00 NR 13.77 113.28
WP 15:00:00 NR 14.05 112.95
WP 18:00:00 NR 14.32 112.63
WP 21:00:00 NR 14.61 112.31
WP 22:00:00 NR 14.70 112.20

Source Information

Agency Information
USA
TOKYO
CMA
HKO
NEWDELHI
REUNION
BOM
NADI
WELLINGTON
DS824
TD9636 cons_worldwide_trop_cyclone_18710101-19891231-003:Line=6732
TD9635
NEUMANN
MLC

All available IBTrACS Data

SEASON BASIN SUBBASIN ISO_TIME_________ NATURE LAT LON DIST2LAND LANDFALL IFLAG USA SSHS TD9636 LAT TD9636 LON TD9636 STAGE STORM SPEED STORM DIR
Year degrees north degrees east km km 1 degrees north degrees east kts degrees
1922 WP MM 1922-09-22 22:00:00 NR 15.40 130.30 630 582 __________O___ -1 15.40 130.30 2 11 244
1922 WP MM 1922-09-23 00:00:00 NR 15.23 129.95 582 525 __________P___ -1 15.23 129.95 2 11 244
1922 WP MM 03:00:00 NR 14.99 129.42 525 469 __________P___ -1 14.99 129.42 2 11 245
1922 WP MM 06:00:00 NR 14.76 128.92 469 413 __________P___ -1 14.76 128.92 2 10 245
1922 WP MM 09:00:00 NR 14.56 128.45 413 397 __________P___ -1 14.56 128.45 2 10 246
1922 WP MM 10:00:00 NR 14.50 128.30 397 365 __________O___ -1 14.50 128.30 2 9 248
1922 WP MM 12:00:00 NR 14.39 128.02 365 319 __________P___ -1 14.39 128.02 2 9 250
1922 WP MM 15:00:00 NR 14.25 127.59 319 272 __________P___ -1 14.25 127.59 2 9 252
1922 WP MM 18:00:00 NR 14.11 127.12 272 219 __________P___ -1 14.11 127.12 2 11 254
1922 WP MM 21:00:00 NR 13.96 126.53 219 196 __________P___ -1 13.96 126.53 2 12 255
1922 WP MM 22:00:00 NR 13.90 126.30 196 151 __________O___ -1 13.90 126.30 2 15 255
1922 WP MM 1922-09-24 00:00:00 NR 13.76 125.77 151 48 __________P___ -1 13.76 125.77 2 18 255
1922 WP MM 03:00:00 NR 13.53 124.85 48 0 __________P___ -1 13.53 124.85 2 20 255
1922 WP MM 06:00:00 NR 13.27 123.83 0 0 __________P___ -1 13.27 123.83 2 21 255
1922 WP MM 09:00:00 NR 12.99 122.76 24 22 __________P___ -1 12.99 122.76 2 22 255
1922 WP MM 10:00:00 NR 12.90 122.40 39 15 __________O___ -1 12.90 122.40 2 23 253
1922 WP MM 12:00:00 NR 12.67 121.65 15 0 __________P___ -1 12.67 121.65 2 23 252
1922 WP MM 15:00:00 NR 12.31 120.51 54 62 __________P___ -1 12.31 120.51 2 23 253
1922 WP MM 18:00:00 NR 11.99 119.42 79 74 __________P___ -1 11.99 119.42 2 21 254
1922 WP MM 21:00:00 NR 11.75 118.47 113 122 __________P___ -1 11.75 118.47 2 18 256
1922 WP MM 22:00:00 NR 11.70 118.20 142 142 __________O___ -1 11.70 118.20 2 14 263
1922 WP MM 1922-09-25 00:00:00 NR 11.67 117.77 183 193 __________P___ -1 11.67 117.77 2 11 271
1922 WP MM 03:00:00 NR 11.72 117.29 235 235 __________P___ -1 11.72 117.29 2 9 283
1922 WP MM 06:00:00 NR 11.86 116.92 283 283 __________P___ -1 11.86 116.92 2 7 295
1922 WP MM 09:00:00 NR 12.04 116.61 318 321 __________P___ -1 12.04 116.61 2 7 300
1922 WP MM 10:00:00 NR 12.10 116.50 331 331 __________O___ -1 12.10 116.50 2 8 290
1922 WP MM 12:00:00 NR 12.18 116.22 366 366 __________P___ -1 12.18 116.22 2 8 288
1922 WP MM 15:00:00 NR 12.31 115.81 409 409 __________P___ -1 12.31 115.81 2 8 290
1922 WP MM 18:00:00 NR 12.47 115.41 453 453 __________P___ -1 12.47 115.41 2 8 293
1922 WP MM 21:00:00 NR 12.64 115.03 488 488 __________P___ -1 12.64 115.03 2 8 295
1922 WP MM 22:00:00 NR 12.70 114.90 503 503 __________O___ -1 12.70 114.90 2 8 298
1922 WP MM 1922-09-26 00:00:00 NR 12.83 114.65 526 520 __________P___ -1 12.83 114.65 2 8 300
1922 WP MM 03:00:00 NR 13.04 114.29 520 478 __________P___ -1 13.04 114.29 2 8 303
1922 WP MM 06:00:00 NR 13.27 113.95 478 449 __________P___ -1 13.27 113.95 2 8 306
1922 WP MM 09:00:00 NR 13.51 113.61 449 440 __________P___ -1 13.51 113.61 2 8 307
1922 WP MM 10:00:00 NR 13.60 113.50 440 421 __________O___ -1 13.60 113.50 2 8 309
1922 WP MM 12:00:00 NR 13.77 113.28 423 398 __________P___ -1 13.77 113.28 2 8 310
1922 WP MM 15:00:00 NR 14.05 112.95 398 358 __________P___ -1 14.05 112.95 2 8 311
1922 WP MM 18:00:00 NR 14.32 112.63 358 332 __________P___ -1 14.32 112.63 2 8 312
1922 WP MM 21:00:00 NR 14.61 112.31 332 325 __________P___ -1 14.61 112.31 2 8 312
1922 WP MM 22:00:00 NR 14.70 112.20 325 __________O___ -1 14.70 112.20 2 8 311